Time;durP1;ratioP1;P1;durP2;ratioP2;P2;SDS_P1;SDS_P2;PMS_P1;PMS_P2;Temp;Humidity;BMP_temperature;BMP_pressure;BME280_temperature;BME280_humidity;BME280_pressure;Samples;Min_cycle;Max_cycle;Signal;HPM_P1;HPM_P2
2022/07/20 00:02:03;;;;;;;7.90;3.70;;;25.20;47.90;;;;;;4987083;28;20539;-51
2022/07/20 00:04:30;;;;;;;7.03;4.30;;;25.20;47.90;;;;;;5006638;28;20456;-50
2022/07/20 00:06:57;;;;;;;5.90;4.47;;;25.10;47.90;;;;;;5004847;28;20457;-49
2022/07/20 00:12:09;;;;;;;6.30;4.30;;;25.00;48.20;;;;;;5003736;28;20500;-50
2022/07/20 00:14:36;;;;;;;8.30;4.47;;;25.00;48.20;;;;;;5003488;28;20543;-50
2022/07/20 00:17:03;;;;;;;4.73;3.90;;;25.00;48.20;;;;;;5005585;28;20456;-49
2022/07/20 00:19:30;;;;;;;7.50;4.10;;;24.90;48.40;;;;;;5003351;28;20576;-50
2022/07/20 00:21:57;;;;;;;5.13;3.73;;;24.80;48.40;;;;;;5003063;28;20524;-50
2022/07/20 00:24:24;;;;;;;6.23;4.70;;;24.80;48.50;;;;;;5005179;28;20487;-50
2022/07/20 00:26:50;;;;;;;8.57;4.20;;;24.70;48.80;;;;;;5005674;28;20460;-50
2022/07/20 00:29:17;;;;;;;7.60;4.67;;;24.70;48.80;;;;;;5004264;28;20473;-52
2022/07/20 00:31:45;;;;;;;8.70;4.57;;;24.60;48.90;;;;;;5005200;28;20512;-52
2022/07/20 00:34:12;;;;;;;10.93;4.43;;;24.60;49.20;;;;;;5006774;28;20554;-50
2022/07/20 00:36:38;;;;;;;5.60;4.30;;;24.60;48.90;;;;;;4987681;28;20492;-51
2022/07/20 00:39:05;;;;;;;6.43;4.23;;;24.60;48.80;;;;;;5003752;28;21444;-51
2022/07/20 00:41:32;;;;;;;6.23;4.40;;;24.50;49.00;;;;;;4986512;28;20457;-50
2022/07/20 00:44:08;;;;;;;6.93;4.73;;;24.50;48.90;;;;;;5004760;28;20507;-50
2022/07/20 00:46:37;;;;;;;7.23;4.20;;;24.50;49.20;;;;;;5005127;28;20542;-51
2022/07/20 00:49:06;;;;;;;6.73;4.17;;;24.40;49.40;;;;;;5008912;28;20513;-50
2022/07/20 00:51:33;;;;;;;9.00;4.33;;;24.40;49.50;;;;;;5008868;28;20531;-51
2022/07/20 00:54:00;;;;;;;9.70;5.20;;;24.40;49.50;;;;;;5009618;28;20467;-50
2022/07/20 00:56:27;;;;;;;8.13;4.80;;;24.40;49.10;;;;;;5010442;28;20540;-51
2022/07/20 00:58:54;;;;;;;5.37;4.87;;;24.30;49.20;;;;;;5007673;28;20551;-51
2022/07/20 01:01:21;;;;;;;7.80;5.13;;;24.30;49.40;;;;;;5007875;28;20463;-50
2022/07/20 01:03:48;;;;;;;10.00;4.63;;;24.20;49.50;;;;;;4993402;28;20448;-50
2022/07/20 01:06:16;;;;;;;7.17;5.33;;;24.20;49.60;;;;;;5007560;28;20558;-51
2022/07/20 01:08:42;;;;;;;6.03;4.43;;;24.20;49.90;;;;;;5008914;28;20480;-50
2022/07/20 01:11:09;;;;;;;7.40;5.20;;;24.10;50.00;;;;;;4995655;28;20980;-50
2022/07/20 01:13:36;;;;;;;5.40;4.60;;;24.10;50.00;;;;;;4974757;28;20512;-51
2022/07/20 01:16:03;;;;;;;6.20;5.07;;;24.00;50.10;;;;;;4989576;28;20452;-51
2022/07/20 01:18:30;;;;;;;8.13;4.57;;;24.00;50.30;;;;;;4991259;28;20547;-52
2022/07/20 01:21:08;;;;;;;7.53;4.37;;;24.00;50.30;;;;;;4984001;28;20578;-53
2022/07/20 01:23:35;;;;;;;11.40;4.57;;;24.00;50.20;;;;;;4990522;28;21122;-51
2022/07/20 01:26:03;;;;;;;5.53;4.70;;;23.90;50.00;;;;;;4987751;28;20457;-50
2022/07/20 01:28:30;;;;;;;6.50;4.83;;;23.90;50.10;;;;;;4989292;28;20543;-50
2022/07/20 01:30:57;;;;;;;8.50;5.00;;;23.90;50.40;;;;;;4954891;28;20469;-50
2022/07/20 01:33:24;;;;;;;4.23;3.83;;;23.90;50.50;;;;;;4989809;28;20855;-50
2022/07/20 01:35:51;;;;;;;7.80;5.27;;;23.80;50.70;;;;;;4991384;28;20490;-51
2022/07/20 01:38:18;;;;;;;7.23;4.33;;;23.80;51.00;;;;;;4989483;28;20468;-50
2022/07/20 01:40:45;;;;;;;5.43;4.50;;;23.80;51.00;;;;;;4991347;28;20907;-50
2022/07/20 01:43:12;;;;;;;7.53;4.73;;;23.80;51.00;;;;;;4991420;28;20467;-49
2022/07/20 01:45:39;;;;;;;5.40;4.90;;;23.80;51.20;;;;;;4991242;28;20997;-50
2022/07/20 01:48:06;;;;;;;4.90;4.50;;;23.70;51.30;;;;;;4988876;28;20467;-50
2022/07/20 01:50:33;;;;;;;7.13;4.60;;;23.70;51.30;;;;;;4991136;28;20863;-50
2022/07/20 01:53:00;;;;;;;4.57;4.17;;;23.70;51.40;;;;;;4990000;28;20552;-50
2022/07/20 01:55:26;;;;;;;6.10;4.50;;;23.70;51.60;;;;;;4989817;28;20475;-50
2022/07/20 01:57:53;;;;;;;4.93;4.23;;;23.70;51.70;;;;;;4985960;28;20484;-50
2022/07/20 02:00:21;;;;;;;7.03;4.47;;;23.70;51.80;;;;;;4986311;28;20480;-50
2022/07/20 02:02:48;;;;;;;7.23;4.67;;;23.70;51.70;;;;;;4989740;28;20457;-50
2022/07/20 02:05:16;;;;;;;5.87;4.73;;;23.70;51.70;;;;;;4989266;28;20519;-50
2022/07/20 02:07:43;;;;;;;11.00;6.63;;;23.60;51.90;;;;;;4989443;28;20934;-50
2022/07/20 02:10:11;;;;;;;7.90;5.40;;;23.60;52.20;;;;;;4971580;28;20544;-50
2022/07/20 02:12:39;;;;;;;5.97;4.67;;;23.70;52.30;;;;;;4989880;28;20899;-50
2022/07/20 02:15:08;;;;;;;8.40;4.47;;;23.60;52.20;;;;;;4970976;28;20492;-50
2022/07/20 02:17:36;;;;;;;6.60;5.43;;;23.60;52.30;;;;;;4990540;28;20461;-50
2022/07/20 02:20:04;;;;;;;5.63;5.13;;;23.60;52.00;;;;;;4989246;28;20488;-50
2022/07/20 02:22:31;;;;;;;7.60;4.87;;;23.60;51.50;;;;;;4990607;28;20512;-50
2022/07/20 02:24:58;;;;;;;6.30;4.43;;;23.50;51.60;;;;;;4991324;28;20575;-50
2022/07/20 02:27:25;;;;;;;8.17;5.87;;;23.50;51.70;;;;;;4988571;28;20461;-50
2022/07/20 02:29:52;;;;;;;7.60;5.27;;;23.40;51.80;;;;;;4988733;28;20468;-50
2022/07/20 02:32:18;;;;;;;6.77;4.73;;;23.40;52.00;;;;;;4991336;28;21489;-49
2022/07/20 02:34:45;;;;;;;9.87;5.93;;;23.30;52.10;;;;;;4988767;28;20468;-50
2022/07/20 02:37:13;;;;;;;7.33;5.60;;;23.20;52.20;;;;;;4989631;28;20529;-49
2022/07/20 02:39:39;;;;;;;5.13;4.40;;;23.20;52.30;;;;;;4988870;28;20480;-50
2022/07/20 02:42:06;;;;;;;6.93;5.20;;;23.10;52.40;;;;;;4989425;28;20456;-50
2022/07/20 02:44:33;;;;;;;4.97;4.33;;;23.10;52.50;;;;;;4989630;28;20456;-50
2022/07/20 02:47:00;;;;;;;5.43;4.90;;;23.10;52.80;;;;;;4988315;28;20461;-47
2022/07/20 02:49:29;;;;;;;5.70;5.03;;;23.10;52.80;;;;;;4990386;28;20459;-50
2022/07/20 02:51:56;;;;;;;6.87;5.50;;;23.10;52.80;;;;;;5002024;28;20467;-49
2022/07/20 02:54:23;;;;;;;6.23;5.50;;;23.00;53.10;;;;;;5006555;28;20469;-49
2022/07/20 02:56:50;;;;;;;8.00;5.60;;;23.00;52.90;;;;;;4990761;28;20496;-49
2022/07/20 02:59:17;;;;;;;8.93;4.80;;;23.00;52.90;;;;;;5004281;28;20503;-49
2022/07/20 03:01:44;;;;;;;6.27;5.40;;;23.00;53.00;;;;;;5003387;28;20488;-49
2022/07/20 03:04:11;;;;;;;7.23;5.40;;;23.00;53.00;;;;;;5005648;28;20495;-49
2022/07/20 03:06:38;;;;;;;8.70;5.37;;;23.00;53.10;;;;;;5006670;28;20799;-50
2022/07/20 03:09:05;;;;;;;7.93;4.80;;;23.00;53.00;;;;;;5006911;28;20480;-49
2022/07/20 03:11:32;;;;;;;7.10;4.53;;;22.90;53.20;;;;;;4985737;28;20461;-49
2022/07/20 03:13:59;;;;;;;6.60;4.60;;;22.90;53.30;;;;;;4988858;28;20978;-49
2022/07/20 03:16:25;;;;;;;10.00;5.20;;;22.90;53.40;;;;;;5005167;28;20515;-49
2022/07/20 03:18:52;;;;;;;10.00;5.57;;;22.90;53.50;;;;;;4988195;28;20477;-49
2022/07/20 03:21:20;;;;;;;5.47;4.97;;;22.90;53.70;;;;;;5004194;28;20497;-49
2022/07/20 03:23:47;;;;;;;6.47;5.33;;;22.80;53.90;;;;;;5006572;28;20505;-49
2022/07/20 03:26:14;;;;;;;8.30;4.97;;;22.80;54.10;;;;;;5004358;28;20468;-49
2022/07/20 03:28:40;;;;;;;6.60;5.07;;;22.80;54.30;;;;;;5004823;28;20457;-49
2022/07/20 03:31:07;;;;;;;5.83;4.70;;;22.80;54.30;;;;;;4988028;28;20953;-49
2022/07/20 03:33:34;;;;;;;7.13;5.70;;;22.80;54.30;;;;;;5005578;28;20508;-50
2022/07/20 03:36:01;;;;;;;6.13;5.53;;;22.70;54.30;;;;;;5001976;28;20528;-49
2022/07/20 03:38:27;;;;;;;7.20;6.03;;;22.70;54.20;;;;;;5002821;28;20561;-49
2022/07/20 03:40:54;;;;;;;7.57;5.27;;;22.70;54.10;;;;;;5004399;28;20496;-49
2022/07/20 03:43:25;;;;;;;6.90;5.50;;;22.70;54.10;;;;;;5004801;28;20512;-50
2022/07/20 03:45:52;;;;;;;5.27;4.77;;;22.60;54.00;;;;;;5003834;28;20488;-49
2022/07/20 03:48:19;;;;;;;7.83;5.50;;;22.70;53.80;;;;;;5006243;28;20509;-49
2022/07/20 03:50:46;;;;;;;8.77;5.47;;;22.60;53.70;;;;;;5003022;28;20540;-48
2022/07/20 03:53:13;;;;;;;6.03;5.50;;;22.60;53.90;;;;;;5001539;28;20560;-49
2022/07/20 03:55:40;;;;;;;6.43;4.97;;;22.60;53.90;;;;;;5004823;28;20479;-49
2022/07/20 03:58:07;;;;;;;8.23;5.50;;;22.60;53.90;;;;;;5006939;28;20529;-50
2022/07/20 04:00:34;;;;;;;6.30;5.70;;;22.50;53.90;;;;;;5004160;28;20488;-49
2022/07/20 04:03:01;;;;;;;20.43;5.07;;;22.50;53.90;;;;;;4988524;28;20457;-49
2022/07/20 04:05:28;;;;;;;6.13;5.07;;;22.50;54.00;;;;;;4995675;28;20996;-46
2022/07/20 04:07:55;;;;;;;6.47;5.27;;;22.50;54.00;;;;;;4986450;28;20467;-46
2022/07/20 04:10:22;;;;;;;10.17;5.03;;;22.50;54.10;;;;;;4988082;28;20560;-46
2022/07/20 04:12:51;;;;;;;6.13;5.07;;;22.50;54.20;;;;;;4970920;28;20514;-45
2022/07/20 04:15:18;;;;;;;10.90;6.10;;;22.50;54.40;;;;;;4986632;28;20465;-46
2022/07/20 04:17:44;;;;;;;6.50;5.33;;;22.50;54.50;;;;;;4986413;28;20463;-46
2022/07/20 04:20:11;;;;;;;7.00;5.90;;;22.50;54.60;;;;;;4986780;28;20496;-46
2022/07/20 04:22:38;;;;;;;6.73;5.20;;;22.40;54.70;;;;;;4988328;28;20453;-46
2022/07/20 04:25:05;;;;;;;6.30;4.73;;;22.50;55.00;;;;;;4987265;28;20541;-45
2022/07/20 04:27:32;;;;;;;5.97;5.37;;;22.50;55.20;;;;;;4965242;28;20460;-46
2022/07/20 04:29:59;;;;;;;10.03;5.30;;;22.50;55.20;;;;;;4983969;28;21097;-46
2022/07/20 04:32:26;;;;;;;6.37;5.10;;;22.50;55.30;;;;;;4984235;28;20471;-46
2022/07/20 04:34:53;;;;;;;5.03;4.53;;;22.50;55.30;;;;;;4985918;28;20571;-47
2022/07/20 04:37:21;;;;;;;8.87;5.20;;;22.50;55.50;;;;;;4986697;28;22148;-46
2022/07/20 04:39:48;;;;;;;6.30;4.50;;;22.50;55.60;;;;;;4977013;28;20500;-45
2022/07/20 04:42:15;;;;;;;9.00;5.97;;;22.50;55.50;;;;;;4980579;28;20875;-45
2022/07/20 04:44:41;;;;;;;9.27;6.40;;;22.50;55.50;;;;;;4984343;28;20456;-45
2022/07/20 04:47:08;;;;;;;8.60;5.60;;;22.60;55.60;;;;;;4968335;28;20461;-45
2022/07/20 04:49:35;;;;;;;11.40;5.53;;;22.60;55.70;;;;;;4980995;28;20833;-46
2022/07/20 04:52:02;;;;;;;9.00;5.53;;;22.60;55.90;;;;;;4968727;28;20475;-46
2022/07/20 04:54:35;;;;;;;9.57;5.47;;;22.60;55.70;;;;;;4983973;28;20468;-46
2022/07/20 04:57:02;;;;;;;6.30;5.70;;;22.70;55.40;;;;;;4986138;28;20469;-47
2022/07/20 04:59:28;;;;;;;7.43;5.87;;;22.80;55.30;;;;;;4985336;28;20483;-45
2022/07/20 05:01:55;;;;;;;6.80;5.13;;;22.80;55.20;;;;;;4988203;28;20488;-45
2022/07/20 05:04:22;;;;;;;6.77;5.67;;;22.90;55.00;;;;;;4988504;28;20452;-46
2022/07/20 05:06:49;;;;;;;8.40;5.40;;;22.90;55.10;;;;;;4967386;28;20552;-46
2022/07/20 05:09:16;;;;;;;6.67;5.77;;;22.90;55.10;;;;;;4976783;28;20973;-46
2022/07/20 05:11:43;;;;;;;8.40;5.80;;;22.90;55.20;;;;;;4981291;28;21068;-46
2022/07/20 05:14:10;;;;;;;7.97;5.10;;;22.90;55.40;;;;;;4989020;28;20461;-50
2022/07/20 05:16:37;;;;;;;5.83;4.90;;;23.00;55.60;;;;;;4988595;28;20984;-50
2022/07/20 05:19:04;;;;;;;8.47;5.33;;;23.10;55.10;;;;;;4985487;28;20465;-47
2022/07/20 05:21:39;;;;;;;12.90;5.40;;;23.20;54.60;;;;;;4982238;28;20499;-46
2022/07/20 05:24:06;;;;;;;7.80;5.83;;;23.30;54.60;;;;;;4967370;28;20465;-46
2022/07/20 05:26:32;;;;;;;6.50;5.90;;;23.30;54.70;;;;;;4984901;28;20465;-47
2022/07/20 05:28:59;;;;;;;7.77;5.40;;;23.40;54.80;;;;;;4985784;28;20529;-46
2022/07/20 05:31:26;;;;;;;6.87;5.20;;;23.40;55.20;;;;;;4987604;28;20472;-50
2022/07/20 05:33:53;;;;;;;7.87;5.00;;;23.50;55.40;;;;;;4987730;28;20522;-51
2022/07/20 05:36:20;;;;;;;8.00;5.00;;;23.60;55.50;;;;;;4990249;28;20568;-50
2022/07/20 05:38:46;;;;;;;5.77;5.23;;;23.70;55.70;;;;;;4992965;28;20456;-51
2022/07/20 05:41:13;;;;;;;9.83;5.57;;;23.80;55.70;;;;;;4973879;28;21181;-50
2022/07/20 05:43:40;;;;;;;6.73;5.13;;;23.90;55.00;;;;;;4987751;28;20455;-50
2022/07/20 05:46:07;;;;;;;10.77;5.20;;;24.00;54.50;;;;;;4990291;28;20468;-51
2022/07/20 05:48:34;;;;;;;6.83;5.90;;;24.10;54.00;;;;;;4974020;28;20480;-50
2022/07/20 05:51:01;;;;;;;11.97;6.47;;;24.20;54.00;;;;;;4990841;28;20514;-51
2022/07/20 05:53:27;;;;;;;8.10;5.50;;;24.30;54.00;;;;;;4981955;28;20800;-51
2022/07/20 05:55:54;;;;;;;4.97;4.50;;;24.40;53.80;;;;;;4983522;28;20472;-50
2022/07/20 05:58:21;;;;;;;6.90;4.93;;;24.40;53.40;;;;;;4989531;28;20456;-52
2022/07/20 06:00:48;;;;;;;8.70;6.10;;;24.50;53.20;;;;;;4988023;28;20492;-51
2022/07/20 06:03:15;;;;;;;6.40;4.87;;;24.50;53.00;;;;;;4988493;28;21029;-52
2022/07/20 06:05:42;;;;;;;6.87;5.37;;;24.60;52.20;;;;;;4989428;28;20461;-50
2022/07/20 06:08:08;;;;;;;11.53;4.70;;;24.80;52.60;;;;;;4988390;28;20658;-52
2022/07/20 06:10:36;;;;;;;7.90;5.30;;;24.90;51.30;;;;;;4985389;28;20465;-52
2022/07/20 06:13:04;;;;;;;12.73;5.33;;;24.90;51.00;;;;;;4989667;28;20465;-51
2022/07/20 06:15:36;;;;;;;9.40;4.80;;;25.00;51.30;;;;;;4975543;28;20531;-51
2022/07/20 06:18:03;;;;;;;13.40;6.73;;;25.10;51.50;;;;;;4987417;28;20499;-52
2022/07/20 06:20:30;;;;;;;14.97;8.23;;;25.20;50.90;;;;;;4989311;28;20484;-50
2022/07/20 06:22:58;;;;;;;6.90;5.40;;;25.40;49.90;;;;;;4986076;28;20484;-50
2022/07/20 06:25:26;;;;;;;6.73;5.13;;;25.50;50.10;;;;;;4988053;28;20538;-50
2022/07/20 06:27:53;;;;;;;7.10;4.20;;;25.60;48.50;;;;;;4987810;28;21134;-50
2022/07/20 06:30:20;;;;;;;8.93;4.70;;;25.80;47.70;;;;;;4988876;28;20492;-50
2022/07/20 06:32:47;;;;;;;6.53;4.67;;;25.90;47.80;;;;;;4987075;28;20479;-51
2022/07/20 06:35:14;;;;;;;5.03;3.67;;;26.10;47.90;;;;;;4972184;28;20547;-50
2022/07/20 06:37:41;;;;;;;6.80;4.70;;;26.20;47.10;;;;;;4987877;28;20508;-50
2022/07/20 06:40:08;;;;;;;7.80;4.80;;;26.40;46.60;;;;;;4968960;28;20452;-50
2022/07/20 06:42:35;;;;;;;7.90;4.00;;;26.50;46.00;;;;;;4989642;28;20488;-50
2022/07/20 06:45:04;;;;;;;12.10;5.50;;;26.70;45.50;;;;;;4971305;28;20456;-51
2022/07/20 06:47:31;;;;;;;6.00;4.47;;;26.90;45.50;;;;;;4970231;28;20448;-50
2022/07/20 06:49:58;;;;;;;7.20;4.33;;;27.00;44.80;;;;;;4985987;28;20471;-50
2022/07/20 06:52:30;;;;;;;7.90;4.80;;;27.10;44.10;;;;;;4985500;28;20516;-50
2022/07/20 06:54:57;;;;;;;11.10;4.70;;;27.30;44.10;;;;;;4988887;28;20499;-49
2022/07/20 06:57:23;;;;;;;8.20;4.37;;;27.40;44.40;;;;;;4987025;28;20461;-49
2022/07/20 06:59:50;;;;;;;4.67;4.17;;;27.50;44.20;;;;;;4983793;28;20470;-49
2022/07/20 07:02:17;;;;;;;8.10;5.17;;;27.70;44.50;;;;;;4987114;28;20567;-50
2022/07/20 07:04:46;;;;;;;6.13;3.83;;;27.90;44.10;;;;;;4988782;28;20521;-48
2022/07/20 07:07:13;;;;;;;6.00;3.93;;;28.00;43.60;;;;;;4973143;28;20456;-49
2022/07/20 07:09:40;;;;;;;5.83;4.20;;;28.10;43.20;;;;;;4982853;28;20516;-49
2022/07/20 07:12:08;;;;;;;4.80;4.10;;;28.30;43.40;;;;;;4980889;28;20803;-50
2022/07/20 07:14:36;;;;;;;5.50;4.07;;;28.40;43.40;;;;;;4989121;28;20705;-49
2022/07/20 07:17:03;;;;;;;8.73;4.70;;;28.60;43.20;;;;;;4987235;28;20272;-50
2022/07/20 07:19:30;;;;;;;7.10;4.30;;;28.80;43.00;;;;;;4988076;28;20688;-44
2022/07/20 07:21:57;;;;;;;5.63;4.80;;;28.90;42.70;;;;;;4985814;28;20721;-46
2022/07/20 07:24:24;;;;;;;4.00;3.60;;;29.10;41.50;;;;;;4973224;28;20215;-46
2022/07/20 07:26:50;;;;;;;5.60;3.93;;;29.20;40.90;;;;;;4988934;28;20237;-48
2022/07/20 07:29:19;;;;;;;8.73;4.77;;;29.40;41.10;;;;;;4987189;28;20206;-49
2022/07/20 07:31:47;;;;;;;6.33;4.60;;;29.60;42.10;;;;;;5003135;28;20206;-50
2022/07/20 07:34:15;;;;;;;6.90;4.50;;;29.70;42.30;;;;;;5004261;28;20214;-49
2022/07/20 07:36:42;;;;;;;7.43;4.57;;;29.80;40.70;;;;;;4985640;28;20316;-49
2022/07/20 07:39:12;;;;;;;7.45;4.43;;;30.00;40.70;;;;;;5001897;28;20221;-50
2022/07/20 07:41:39;;;;;;;4.68;4.20;;;30.20;39.80;;;;;;5001540;28;20253;-50
2022/07/20 07:44:06;;;;;;;4.72;4.07;;;30.40;39.70;;;;;;5004177;28;20197;-50
2022/07/20 07:46:32;;;;;;;8.30;3.70;;;30.50;39.90;;;;;;5005803;28;20205;-50
2022/07/20 07:48:59;;;;;;;7.30;5.20;;;30.70;39.50;;;;;;4987705;28;20639;-45
2022/07/20 07:51:26;;;;;;;8.27;4.45;;;30.80;38.80;;;;;;4969209;28;20292;-46
2022/07/20 07:53:53;;;;;;;6.07;4.15;;;31.00;38.60;;;;;;4984724;28;20309;-46
2022/07/20 07:56:20;;;;;;;9.30;4.47;;;31.20;38.00;;;;;;4987440;28;20209;-45
2022/07/20 07:58:50;;;;;;;5.60;4.55;;;31.30;37.90;;;;;;4987010;28;20212;-51
2022/07/20 08:01:39;;;;;;;7.63;4.50;;;31.50;38.30;;;;;;4983980;28;20241;-45
2022/07/20 08:04:06;;;;;;;7.88;4.00;;;31.60;37.70;;;;;;4967709;28;20197;-45
2022/07/20 08:06:33;;;;;;;6.00;4.00;;;31.80;37.80;;;;;;4984913;28;20216;-46
2022/07/20 08:09:00;;;;;;;10.48;4.28;;;32.00;37.20;;;;;;4982374;28;20233;-47
2022/07/20 08:11:30;;;;;;;8.10;4.25;;;32.10;37.00;;;;;;4985701;28;20204;-47
2022/07/20 08:13:56;;;;;;;9.18;4.20;;;32.20;37.20;;;;;;4987268;28;20305;-46
2022/07/20 08:16:23;;;;;;;7.30;4.25;;;32.40;36.80;;;;;;4968651;28;20214;-46
2022/07/20 08:18:50;;;;;;;5.40;4.28;;;32.50;36.30;;;;;;4988241;28;20724;-46
2022/07/20 08:21:18;;;;;;;4.43;3.88;;;32.60;35.90;;;;;;4986131;28;20260;-46
2022/07/20 08:23:44;;;;;;;7.72;4.68;;;32.80;36.70;;;;;;4983976;28;20447;-46
2022/07/20 08:26:12;;;;;;;4.97;3.92;;;32.90;37.40;;;;;;4984970;28;20292;-46
2022/07/20 08:28:40;;;;;;;5.68;3.92;;;33.10;36.40;;;;;;4986382;28;20725;-46
2022/07/20 08:31:06;;;;;;;5.72;4.00;;;33.20;34.90;;;;;;4987173;28;20790;-46
2022/07/20 08:33:33;;;;;;;7.50;4.80;;;33.40;35.10;;;;;;4987223;28;20646;-46
2022/07/20 08:36:00;;;;;;;4.40;4.00;;;33.50;34.70;;;;;;4986261;28;20316;-46
2022/07/20 08:38:27;;;;;;;8.18;5.05;;;33.60;34.80;;;;;;4984561;28;20312;-47
2022/07/20 08:40:56;;;;;;;7.43;4.35;;;33.70;34.20;;;;;;4968079;28;20227;-47
2022/07/20 08:43:23;;;;;;;4.43;4.00;;;33.80;34.00;;;;;;4985901;28;20217;-47
2022/07/20 08:45:50;;;;;;;6.07;4.68;;;33.90;33.80;;;;;;4962312;28;20220;-47
2022/07/20 08:48:18;;;;;;;6.85;4.80;;;34.10;33.70;;;;;;4986408;28;20206;-47
2022/07/20 08:50:47;;;;;;;5.65;4.05;;;34.20;33.90;;;;;;4985560;28;20209;-46
2022/07/20 08:53:16;;;;;;;4.93;4.45;;;34.40;34.10;;;;;;4983940;28;20627;-46
2022/07/20 08:55:43;;;;;;;6.80;4.25;;;34.50;33.70;;;;;;4984488;28;20219;-46
2022/07/20 08:58:11;;;;;;;6.85;4.13;;;34.60;33.70;;;;;;4986810;28;20209;-47
2022/07/20 09:00:39;;;;;;;5.00;4.50;;;34.70;33.90;;;;;;4967776;28;20226;-46
2022/07/20 09:03:08;;;;;;;5.53;4.60;;;34.80;33.20;;;;;;4984624;28;20243;-47
2022/07/20 09:05:38;;;;;;;11.05;4.40;;;34.90;33.20;;;;;;4965721;28;20566;-46
2022/07/20 09:08:10;;;;;;;4.70;4.30;;;35.00;33.40;;;;;;4985466;28;20581;-46
2022/07/20 09:10:41;;;;;;;5.65;4.75;;;35.10;32.60;;;;;;4989496;28;20224;-47
2022/07/20 09:13:17;;;;;;;8.00;4.30;;;35.20;33.30;;;;;;4993695;28;20260;-46
2022/07/20 09:15:52;;;;;;;4.22;3.83;;;35.30;33.30;;;;;;4990783;28;20291;-46
2022/07/20 09:18:31;;;;;;;6.97;4.60;;;35.40;33.20;;;;;;4990612;28;20216;-47
2022/07/20 09:20:59;;;;;;;6.57;4.72;;;35.50;33.10;;;;;;4992634;28;20300;-46
2022/07/20 09:23:33;;;;;;;6.82;4.85;;;35.60;32.60;;;;;;4987485;28;20209;-46
2022/07/20 09:26:27;;;;;;;8.15;5.78;;;35.70;32.40;;;;;;4988438;28;20283;-47
2022/07/20 09:28:57;;;;;;;5.32;4.82;;;35.70;31.90;;;;;;4987281;28;20209;-47
2022/07/20 09:31:33;;;;;;;8.63;5.32;;;35.70;32.20;;;;;;4990013;28;20922;-47
2022/07/20 09:34:03;;;;;;;7.10;4.50;;;35.80;32.20;;;;;;4990335;28;20212;-46
2022/07/20 09:36:35;;;;;;;5.38;4.88;;;35.90;32.20;;;;;;4989246;28;20315;-47
2022/07/20 09:39:09;;;;;;;6.07;4.78;;;36.10;32.30;;;;;;4988150;28;20201;-54
2022/07/20 09:41:39;;;;;;;5.28;4.70;;;36.30;32.10;;;;;;4986110;28;20252;-46
2022/07/20 09:44:07;;;;;;;6.88;4.60;;;36.50;31.40;;;;;;4985864;28;20211;-47
2022/07/20 09:46:36;;;;;;;9.27;5.60;;;36.60;31.10;;;;;;4950863;28;20206;-47
2022/07/20 09:49:05;;;;;;;8.43;5.50;;;36.80;30.70;;;;;;4988321;28;20357;-47
2022/07/20 09:51:43;;;;;;;7.55;6.00;;;36.90;30.80;;;;;;4988311;28;20248;-47
2022/07/20 09:54:15;;;;;;;6.43;5.38;;;37.10;30.80;;;;;;4983452;28;20215;-47
2022/07/20 09:56:47;;;;;;;7.82;5.13;;;37.20;30.40;;;;;;4990324;28;20216;-47
2022/07/20 09:59:15;;;;;;;4.85;4.32;;;37.50;30.20;;;;;;4988591;28;20304;-47
2022/07/20 10:01:46;;;;;;;8.55;4.68;;;37.70;29.90;;;;;;4987842;28;20232;-47
2022/07/20 10:04:14;;;;;;;7.72;4.28;;;37.90;29.70;;;;;;4989228;28;20209;-47
2022/07/20 10:06:43;;;;;;;6.22;4.68;;;38.10;29.20;;;;;;4970789;28;20214;-47
2022/07/20 10:09:11;;;;;;;9.45;4.78;;;38.30;28.90;;;;;;4988773;28;20676;-47
2022/07/20 10:11:38;;;;;;;6.30;5.32;;;38.50;28.70;;;;;;4989700;28;20249;-47
2022/07/20 10:14:05;;;;;;;6.55;5.40;;;38.70;28.40;;;;;;4986662;28;20775;-47
2022/07/20 10:16:47;;;;;;;6.95;4.88;;;38.80;28.30;;;;;;4972996;28;20279;-48
2022/07/20 10:19:14;;;;;;;5.85;5.38;;;38.70;28.40;;;;;;4988220;28;20236;-48
2022/07/20 10:21:43;;;;;;;8.88;5.90;;;38.80;28.30;;;;;;4986770;28;20340;-48
2022/07/20 10:24:34;;;;;;;9.05;5.40;;;38.90;28.00;;;;;;4986160;28;20224;-45
2022/07/20 10:27:16;;;;;;;6.55;5.00;;;39.00;27.90;;;;;;4988779;28;20686;-47
2022/07/20 10:29:49;;;;;;;6.60;5.13;;;39.10;28.00;;;;;;4970674;28;20240;-46
2022/07/20 10:32:20;;;;;;;7.20;6.20;;;39.10;27.90;;;;;;4984362;28;20682;-46
2022/07/20 10:34:58;;;;;;;6.70;5.38;;;39.00;28.20;;;;;;4987541;28;20209;-46
2022/07/20 10:37:34;;;;;;;8.05;5.38;;;39.00;27.80;;;;;;4985347;28;20219;-46
2022/07/20 10:40:11;;;;;;;7.43;4.65;;;39.00;27.90;;;;;;4966366;28;20651;-46
2022/07/20 10:43:14;;;;;;;5.82;5.00;;;38.90;28.20;;;;;;4988455;28;20236;-46
2022/07/20 10:45:41;;;;;;;9.15;4.97;;;38.70;28.10;;;;;;4960088;28;20310;-46
2022/07/20 10:48:11;;;;;;;6.03;5.32;;;38.50;28.10;;;;;;4988488;28;20218;-46
2022/07/20 10:50:41;;;;;;;6.40;5.80;;;38.20;28.50;;;;;;4961359;28;20296;-47
2022/07/20 10:53:12;;;;;;;10.40;5.60;;;37.90;29.10;;;;;;4988993;28;20213;-47
2022/07/20 10:55:42;;;;;;;8.77;5.68;;;37.60;29.50;;;;;;4981970;28;20214;-46
2022/07/20 10:58:15;;;;;;;11.05;5.30;;;37.30;29.50;;;;;;4965725;28;20213;-47
2022/07/20 11:00:51;;;;;;;8.32;5.25;;;37.10;29.80;;;;;;4989215;28;20666;-47
2022/07/20 11:03:29;;;;;;;6.22;5.63;;;37.00;30.50;;;;;;4986609;28;20235;-47
2022/07/20 11:06:12;;;;;;;6.32;5.60;;;36.80;30.40;;;;;;4986360;28;21902;-47
2022/07/20 11:08:52;;;;;;;5.75;5.10;;;36.60;30.70;;;;;;4981333;28;20687;-47
2022/07/20 11:11:22;;;;;;;7.35;5.40;;;36.50;30.40;;;;;;4987872;28;21046;-47
2022/07/20 11:13:49;;;;;;;8.90;6.40;;;36.30;30.60;;;;;;4981967;28;20213;-46
2022/07/20 11:16:22;;;;;;;9.13;5.43;;;36.10;30.80;;;;;;4966029;28;20212;-46
2022/07/20 11:18:50;;;;;;;5.95;4.60;;;36.00;31.60;;;;;;4987057;28;20201;-46
2022/07/20 11:21:31;;;;;;;9.25;5.32;;;35.80;31.50;;;;;;4986347;28;22235;-47
2022/07/20 11:24:03;;;;;;;8.60;5.38;;;35.70;31.30;;;;;;4983914;28;20228;-46
2022/07/20 11:26:29;;;;;;;5.32;4.82;;;35.60;31.20;;;;;;4986556;28;20210;-47
2022/07/20 11:28:58;;;;;;;6.38;5.07;;;35.60;31.30;;;;;;4986363;28;20519;-47
2022/07/20 11:31:29;;;;;;;8.75;5.72;;;35.50;31.60;;;;;;4987973;28;20237;-46
2022/07/20 11:33:58;;;;;;;7.55;5.28;;;35.50;31.40;;;;;;4988651;28;20610;-47
2022/07/20 11:36:28;;;;;;;6.88;5.72;;;35.50;31.30;;;;;;4987489;28;20225;-46
2022/07/20 11:39:02;;;;;;;7.75;5.82;;;35.40;32.40;;;;;;4986030;28;20213;-46
2022/07/20 11:41:35;;;;;;;7.82;5.63;;;35.30;32.00;;;;;;4986535;28;20201;-47
2022/07/20 11:44:04;;;;;;;8.73;6.00;;;35.30;31.60;;;;;;4970221;28;20613;-46
2022/07/20 11:46:40;;;;;;;6.13;5.53;;;35.30;31.70;;;;;;4986469;28;20205;-46
2022/07/20 11:49:14;;;;;;;7.05;5.18;;;35.20;31.80;;;;;;4986239;28;20741;-47
2022/07/20 11:52:05;;;;;;;6.60;5.90;;;35.10;31.70;;;;;;4979795;28;20448;-47
2022/07/20 11:54:37;;;;;;;6.40;5.55;;;35.10;32.50;;;;;;4987712;28;20280;-47
2022/07/20 11:57:06;;;;;;;7.03;5.85;;;35.20;32.00;;;;;;4982842;28;20663;-47
2022/07/20 11:59:34;;;;;;;7.22;6.03;;;35.10;31.90;;;;;;4985484;28;20215;-46
2022/07/20 12:02:02;;;;;;;6.47;5.70;;;35.10;32.40;;;;;;4985624;28;20233;-47
2022/07/20 12:04:34;;;;;;;5.97;5.13;;;35.10;32.10;;;;;;4981244;28;20209;-47
2022/07/20 12:08:07;;;;;;;8.15;5.85;;;35.10;32.30;;;;;;4981808;28;20217;-47
2022/07/20 12:09:50;;;;;;;7.15;5.88;;;35.10;32.00;;;;;;4987066;28;20958;-46
2022/07/20 12:12:44;;;;;;;7.10;6.38;;;35.10;31.90;;;;;;4986344;28;20213;-46
2022/07/20 12:15:11;;;;;;;6.55;5.95;;;35.00;32.20;;;;;;4986488;28;20653;-45
2022/07/20 12:17:47;;;;;;;8.13;5.75;;;35.10;31.90;;;;;;4990801;28;20559;-47
2022/07/20 12:20:14;;;;;;;8.20;6.35;;;35.20;32.60;;;;;;4985753;28;20771;-46
2022/07/20 12:22:52;;;;;;;5.85;5.35;;;35.20;32.70;;;;;;4986914;28;20557;-46
2022/07/20 12:25:20;;;;;;;6.35;5.75;;;35.20;32.70;;;;;;4987342;28;20232;-46
2022/07/20 12:27:47;;;;;;;7.07;5.82;;;35.20;32.50;;;;;;4983624;28;20655;-45
2022/07/20 12:30:34;;;;;;;8.68;6.32;;;35.20;32.80;;;;;;4979732;28;20510;-46
2022/07/20 12:33:13;;;;;;;7.35;6.57;;;35.20;32.40;;;;;;4980261;28;20663;-45
2022/07/20 12:35:46;;;;;;;11.00;6.53;;;35.30;32.40;;;;;;4979541;28;20336;-46
2022/07/20 12:38:14;;;;;;;9.30;6.55;;;35.20;32.30;;;;;;4985555;28;20225;-45
2022/07/20 12:40:47;;;;;;;7.60;5.63;;;35.30;33.10;;;;;;4982954;28;20638;-46
2022/07/20 12:43:40;;;;;;;7.07;6.07;;;35.40;32.60;;;;;;4985799;28;20336;-46
2022/07/20 12:46:13;;;;;;;7.00;5.65;;;35.40;32.40;;;;;;4987736;28;20201;-47
2022/07/20 12:48:46;;;;;;;6.75;5.43;;;35.50;32.10;;;;;;4989546;28;20204;-46
2022/07/20 12:51:15;;;;;;;11.40;6.75;;;35.50;32.60;;;;;;4986524;28;20551;-46
2022/07/20 12:53:44;;;;;;;10.18;6.15;;;35.50;32.40;;;;;;4973154;28;20219;-46
2022/07/20 12:56:14;;;;;;;9.00;6.68;;;35.50;32.60;;;;;;4984230;28;20288;-46
2022/07/20 12:58:41;;;;;;;12.80;7.40;;;35.50;32.50;;;;;;4986502;28;20308;-46